»·PEaware :: N8295H KSNA-KCRQ

N8295H :: KSNA-KCRQ

FLIGHT INFORMATION

Flight Status: Arrived
Operator: Privately registered:
United States
More flights under this callsign
Pilot: Andrew R. (27652)
Aircraft: PIPER PA-28 CHEROKEE ARCHER
(P28A)
More flights by this aircraft type
Origin: KSNA John Wayne-Orange Co
United States
Destination: KCRQ McClellan-Palomar
United States
More flights between these airports :: More routes between these airports
Route: V23 OCN
File this flight plan on PilotEdge
Remarks:
Altitude:
(Current/Filed)
5,000ft
Speed:
(Current/Filed)
105kts
Departed: 12-Jan-21 06:53 PM
Arrived: 12-Jan-21 07:34 PM
Distance/Time
Traveled:
44nm/0:40
Distance/Time
To Go:
Arrived

Flight Plot

Page will automatically refresh every two minutes.


Map Options




Map Legend


Flown Route
Filed Route
Departure Airport
Arrival Airport
Navaid (VOR, NDB)
Fix

Horizontal Profiles

Position Reports

Time Latitude Longitude Heading Altitude Ground
Speed
12-Jan-21 18:25 33.669711 -117.869544 41 59ft 0kts
12-Jan-21 18:26 33.669711 -117.869544 41 59ft 0kts
12-Jan-21 18:27 33.669711 -117.869544 41 59ft 0kts
12-Jan-21 18:28 33.669711 -117.869544 41 59ft 0kts
12-Jan-21 18:29 33.669711 -117.869544 41 59ft 0kts
12-Jan-21 18:30 33.669711 -117.869544 41 59ft 0kts
12-Jan-21 18:31 33.669711 -117.869544 41 59ft 0kts
12-Jan-21 18:32 33.669711 -117.869544 41 59ft 0kts
12-Jan-21 18:33 33.669711 -117.869544 41 59ft 0kts
12-Jan-21 18:34 33.669711 -117.869544 41 59ft 0kts
12-Jan-21 18:35 33.669711 -117.869544 41 59ft 0kts
12-Jan-21 18:36 33.669711 -117.869544 41 59ft 0kts
12-Jan-21 18:37 33.669712 -117.869543 41 59ft 0kts
12-Jan-21 18:38 33.669712 -117.869543 41 59ft 0kts
12-Jan-21 18:39 33.669712 -117.869543 41 59ft 0kts
12-Jan-21 18:40 33.672165 -117.868087 28 59ft 12kts
12-Jan-21 18:41 33.673187 -117.868087 22 59ft 0kts
12-Jan-21 18:42 33.673186 -117.868087 22 59ft 0kts
12-Jan-21 18:43 33.673186 -117.868087 22 59ft 0kts
12-Jan-21 18:44 33.673186 -117.868087 22 59ft 0kts
12-Jan-21 18:45 33.673186 -117.868087 22 59ft 0kts
12-Jan-21 18:46 33.673249 -117.868053 26 59ft 0kts
12-Jan-21 18:47 33.673249 -117.868053 26 59ft 0kts
12-Jan-21 18:48 33.675180 -117.866401 27 59ft 18kts
12-Jan-21 18:49 33.679740 -117.863514 24 59ft 6kts
12-Jan-21 18:50 33.679961 -117.863607 298 59ft 0kts
12-Jan-21 18:51 33.680013 -117.863726 297 59ft 5kts
12-Jan-21 18:52 33.672769 -117.868848 207 189ft 72kts
12-Jan-21 18:53 33.656586 -117.878518 186 664ft 83kts
12-Jan-21 18:54 33.635417 -117.880642 186 1170ft 85kts
12-Jan-21 18:55 33.612261 -117.883354 183 1808ft 78kts
12-Jan-21 18:56 33.590111 -117.886203 187 2422ft 81kts
12-Jan-21 18:57 33.574883 -117.866986 112 3036ft 90kts
12-Jan-21 18:58 33.566005 -117.838910 111 3635ft 91kts
12-Jan-21 19:00 33.556572 -117.810024 112 4169ft 94kts
12-Jan-21 19:01 33.542774 -117.783388 140 4664ft 94kts
12-Jan-21 19:02 33.521712 -117.763512 151 5014ft 101kts
12-Jan-21 19:03 33.500309 -117.741345 138 5057ft 102kts
12-Jan-21 19:04 33.479004 -117.716863 132 5029ft 110kts
12-Jan-21 19:05 33.456608 -117.692759 142 4962ft 107kts
12-Jan-21 19:06 33.433626 -117.670041 138 4964ft 107kts
12-Jan-21 19:07 33.411353 -117.646514 140 5017ft 108kts
12-Jan-21 19:08 33.388721 -117.622125 134 5046ft 111kts
12-Jan-21 19:09 33.365508 -117.597478 139 5033ft 111kts
12-Jan-21 19:10 33.343208 -117.571822 130 5020ft 111kts
12-Jan-21 19:11 33.322078 -117.544704 132 5009ft 111kts
12-Jan-21 19:12 33.299939 -117.518766 134 4999ft 111kts
12-Jan-21 19:13 33.278534 -117.492086 128 4989ft 111kts
12-Jan-21 19:13 33.261640 -117.469018 130 4982ft 111kts
12-Jan-21 19:15 33.240460 -117.435043 91 4919ft 108kts
12-Jan-21 19:15 33.238464 -117.405315 94 4663ft 108kts
12-Jan-21 19:17 33.234036 -117.364815 89 4480ft 101kts
12-Jan-21 19:17 33.232024 -117.336294 92 4452ft 100kts
12-Jan-21 19:18 33.229133 -117.302658 98 4423ft 104kts
12-Jan-21 19:20 33.222748 -117.263344 95 4478ft 103kts
12-Jan-21 19:20 33.220606 -117.235048 93 4525ft 103kts
12-Jan-21 19:21 33.216575 -117.201088 100 4588ft 103kts
12-Jan-21 19:22 33.211880 -117.166464 96 4469ft 104kts
12-Jan-21 19:23 33.208357 -117.132510 94 4403ft 101kts
12-Jan-21 19:24 33.203647 -117.100244 97 4445ft 95kts
12-Jan-21 19:25 33.182519 -117.087183 190 3921ft 107kts
12-Jan-21 19:26 33.158456 -117.101409 260 3401ft 97kts
12-Jan-21 19:27 33.151827 -117.132323 259 2962ft 99kts
12-Jan-21 19:28 33.146548 -117.164699 263 2376ft 104kts
12-Jan-21 19:29 33.141449 -117.196448 265 1753ft 90kts
12-Jan-21 19:30 33.137061 -117.225142 258 1190ft 84kts
12-Jan-21 19:31 33.132821 -117.251729 256 786ft 73kts
12-Jan-21 19:32 33.129055 -117.275240 260 334ft 53kts
12-Jan-21 19:33 33.126977 -117.283355 237 334ft 7kts
12-Jan-21 19:34 33.126966 -117.283375 238 334ft 0kts
12-Jan-21 19:35 33.126603 -117.283033 84 334ft 0kts
12-Jan-21 19:36 33.126603 -117.283033 84 334ft 0kts
12-Jan-21 19:37 33.126603 -117.283033 84 334ft 0kts
12-Jan-21 19:38 33.126603 -117.283033 84 334ft 0kts
12-Jan-21 19:39 33.126603 -117.283033 84 334ft 0kts
12-Jan-21 19:40 33.126603 -117.283033 84 334ft 0kts
12-Jan-21 19:41 33.126603 -117.283033 84 334ft 0kts
12-Jan-21 19:42 33.126603 -117.283033 84 334ft 0kts
12-Jan-21 19:43 33.126603 -117.283033 84 334ft 0kts
12-Jan-21 19:44 33.126603 -117.283033 84 334ft 0kts
12-Jan-21 19:45 33.126603 -117.283033 84 334ft 0kts

Navigation Log

Ident Type
Flight plan parsing failed, navigation log unavailable